Haro, Spain
Current Conditions -  °F | °C
As of 4:00 PM on Thursday 18 Dec 2014 (Local Time) from LEVT Reporting Station
Broken Clouds Broken Clouds  
Wind Chill: 11°   Ceiling: 1900
Heat Index: 11°   Visibility: 6mi
Dew Point:   Wind: 5mph
Humidity: 82%   Direction: 50°NE
Pressure: 30.39"   Gusts: NA
Location:  42.58°N, 2.85°W
Report Text: LEVT 181500Z 05004KT 9999 BKN019 11/08 Q1029
Loading
Personal Weather Stations






























Interactive Weather Map New forecast layout! Learn more

10-Day Weather Forecast

Advertisements
Track Severe Weather on mobile